sensor_id;sensor_type;location;lat;lon;timestamp;temperature;humidity
16158;DHT22;8184;60.256;18.694;2023-05-07T00:02:08;2.90;99.90
16158;DHT22;8184;60.256;18.694;2023-05-07T00:04:38;2.80;99.90
16158;DHT22;8184;60.256;18.694;2023-05-07T00:07:06;2.80;99.90
16158;DHT22;8184;60.256;18.694;2023-05-07T00:09:35;2.70;99.90
16158;DHT22;8184;60.256;18.694;2023-05-07T00:12:07;2.70;99.90
16158;DHT22;8184;60.256;18.694;2023-05-07T00:14:35;2.70;99.90
16158;DHT22;8184;60.256;18.694;2023-05-07T00:17:03;2.80;99.90
16158;DHT22;8184;60.256;18.694;2023-05-07T00:19:31;2.80;99.90
16158;DHT22;8184;60.256;18.694;2023-05-07T00:22:01;2.80;99.90
16158;DHT22;8184;60.256;18.694;2023-05-07T00:24:29;2.70;99.90
16158;DHT22;8184;60.256;18.694;2023-05-07T00:26:57;2.60;99.90
16158;DHT22;8184;60.256;18.694;2023-05-07T00:29:26;2.70;99.90
16158;DHT22;8184;60.256;18.694;2023-05-07T00:31:54;2.60;99.90
16158;DHT22;8184;60.256;18.694;2023-05-07T00:34:22;2.60;99.90
16158;DHT22;8184;60.256;18.694;2023-05-07T00:36:51;2.60;99.90
16158;DHT22;8184;60.256;18.694;2023-05-07T00:39:21;2.50;99.90
16158;DHT22;8184;60.256;18.694;2023-05-07T00:41:49;2.50;99.90
16158;DHT22;8184;60.256;18.694;2023-05-07T00:44:18;2.50;99.90
16158;DHT22;8184;60.256;18.694;2023-05-07T00:46:46;2.50;99.90
16158;DHT22;8184;60.256;18.694;2023-05-07T00:49:16;2.40;99.90
16158;DHT22;8184;60.256;18.694;2023-05-07T00:51:45;2.50;99.90
16158;DHT22;8184;60.256;18.694;2023-05-07T00:54:14;2.40;99.90
16158;DHT22;8184;60.256;18.694;2023-05-07T00:56:43;2.40;99.90
16158;DHT22;8184;60.256;18.694;2023-05-07T00:59:12;2.40;99.90
16158;DHT22;8184;60.256;18.694;2023-05-07T01:01:40;2.30;99.90
16158;DHT22;8184;60.256;18.694;2023-05-07T01:04:08;2.30;99.90
16158;DHT22;8184;60.256;18.694;2023-05-07T01:06:40;2.30;99.90
16158;DHT22;8184;60.256;18.694;2023-05-07T01:09:08;2.30;99.90
16158;DHT22;8184;60.256;18.694;2023-05-07T01:11:37;2.30;99.90
16158;DHT22;8184;60.256;18.694;2023-05-07T01:14:06;2.30;99.90
16158;DHT22;8184;60.256;18.694;2023-05-07T01:16:35;2.30;99.90
16158;DHT22;8184;60.256;18.694;2023-05-07T01:19:04;2.30;99.90
16158;DHT22;8184;60.256;18.694;2023-05-07T01:21:33;2.20;99.90
16158;DHT22;8184;60.256;18.694;2023-05-07T01:24:03;2.20;99.90
16158;DHT22;8184;60.256;18.694;2023-05-07T01:26:33;2.20;99.90
16158;DHT22;8184;60.256;18.694;2023-05-07T01:29:02;2.20;99.90
16158;DHT22;8184;60.256;18.694;2023-05-07T01:31:30;2.20;99.90
16158;DHT22;8184;60.256;18.694;2023-05-07T01:33:59;2.20;99.90
16158;DHT22;8184;60.256;18.694;2023-05-07T01:36:29;2.10;99.90
16158;DHT22;8184;60.256;18.694;2023-05-07T01:38:59;2.10;99.90
16158;DHT22;8184;60.256;18.694;2023-05-07T01:41:29;2.10;99.90
16158;DHT22;8184;60.256;18.694;2023-05-07T01:44:00;2.00;99.90
16158;DHT22;8184;60.256;18.694;2023-05-07T01:46:29;2.00;99.90
16158;DHT22;8184;60.256;18.694;2023-05-07T01:48:58;2.00;99.90
16158;DHT22;8184;60.256;18.694;2023-05-07T01:51:26;2.00;99.90
16158;DHT22;8184;60.256;18.694;2023-05-07T01:53:55;2.10;99.90
16158;DHT22;8184;60.256;18.694;2023-05-07T01:56:25;2.10;99.90
16158;DHT22;8184;60.256;18.694;2023-05-07T01:58:54;2.00;99.90
16158;DHT22;8184;60.256;18.694;2023-05-07T02:01:22;2.00;99.90
16158;DHT22;8184;60.256;18.694;2023-05-07T02:03:54;2.00;99.90
16158;DHT22;8184;60.256;18.694;2023-05-07T02:06:22;1.90;99.90
16158;DHT22;8184;60.256;18.694;2023-05-07T02:08:50;1.90;99.90
16158;DHT22;8184;60.256;18.694;2023-05-07T02:11:18;1.90;99.90
16158;DHT22;8184;60.256;18.694;2023-05-07T02:13:47;1.90;99.90
16158;DHT22;8184;60.256;18.694;2023-05-07T02:16:16;1.90;99.90
16158;DHT22;8184;60.256;18.694;2023-05-07T02:18:46;1.80;99.90
16158;DHT22;8184;60.256;18.694;2023-05-07T02:21:14;1.90;99.90
16158;DHT22;8184;60.256;18.694;2023-05-07T02:23:42;1.90;99.90
16158;DHT22;8184;60.256;18.694;2023-05-07T02:26:10;1.90;99.90
16158;DHT22;8184;60.256;18.694;2023-05-07T02:28:40;1.90;99.90
16158;DHT22;8184;60.256;18.694;2023-05-07T02:31:08;1.90;99.90
16158;DHT22;8184;60.256;18.694;2023-05-07T02:33:38;1.80;99.90
16158;DHT22;8184;60.256;18.694;2023-05-07T02:36:07;1.90;99.90
16158;DHT22;8184;60.256;18.694;2023-05-07T02:38:35;1.90;99.90
16158;DHT22;8184;60.256;18.694;2023-05-07T02:41:03;1.90;99.90
16158;DHT22;8184;60.256;18.694;2023-05-07T02:43:32;1.90;99.90
16158;DHT22;8184;60.256;18.694;2023-05-07T02:46:00;1.80;99.90
16158;DHT22;8184;60.256;18.694;2023-05-07T02:48:29;1.90;99.90
16158;DHT22;8184;60.256;18.694;2023-05-07T02:51:01;1.90;99.90
16158;DHT22;8184;60.256;18.694;2023-05-07T02:53:30;1.90;99.90
16158;DHT22;8184;60.256;18.694;2023-05-07T02:55:58;1.90;99.90
16158;DHT22;8184;60.256;18.694;2023-05-07T02:58:27;1.80;99.90
16158;DHT22;8184;60.256;18.694;2023-05-07T03:00:55;1.80;99.90
16158;DHT22;8184;60.256;18.694;2023-05-07T03:03:23;1.90;99.90
16158;DHT22;8184;60.256;18.694;2023-05-07T03:05:51;1.90;99.90
16158;DHT22;8184;60.256;18.694;2023-05-07T03:08:21;2.00;99.90
16158;DHT22;8184;60.256;18.694;2023-05-07T03:10:49;2.00;99.90
16158;DHT22;8184;60.256;18.694;2023-05-07T03:13:17;2.00;99.90
16158;DHT22;8184;60.256;18.694;2023-05-07T03:15:48;2.10;99.90
16158;DHT22;8184;60.256;18.694;2023-05-07T03:18:16;2.10;99.90
16158;DHT22;8184;60.256;18.694;2023-05-07T03:20:45;2.20;99.90
16158;DHT22;8184;60.256;18.694;2023-05-07T03:23:14;2.20;99.90
16158;DHT22;8184;60.256;18.694;2023-05-07T03:25:44;2.30;99.90
16158;DHT22;8184;60.256;18.694;2023-05-07T03:28:12;2.40;99.90
16158;DHT22;8184;60.256;18.694;2023-05-07T03:30:40;2.40;99.90
16158;DHT22;8184;60.256;18.694;2023-05-07T03:33:08;2.40;99.90
16158;DHT22;8184;60.256;18.694;2023-05-07T03:35:36;2.40;99.90
16158;DHT22;8184;60.256;18.694;2023-05-07T03:38:05;2.50;99.90
16158;DHT22;8184;60.256;18.694;2023-05-07T03:40:33;2.60;99.90
16158;DHT22;8184;60.256;18.694;2023-05-07T03:43:03;2.60;99.90
16158;DHT22;8184;60.256;18.694;2023-05-07T03:45:31;2.60;99.90
16158;DHT22;8184;60.256;18.694;2023-05-07T03:47:59;2.70;99.90
16158;DHT22;8184;60.256;18.694;2023-05-07T03:50:27;2.80;99.90
16158;DHT22;8184;60.256;18.694;2023-05-07T03:52:56;3.00;99.90
16158;DHT22;8184;60.256;18.694;2023-05-07T03:55:24;3.30;99.90
16158;DHT22;8184;60.256;18.694;2023-05-07T03:57:53;3.40;99.90
16158;DHT22;8184;60.256;18.694;2023-05-07T04:00:24;3.20;99.90
16158;DHT22;8184;60.256;18.694;2023-05-07T04:02:53;3.00;99.90
16158;DHT22;8184;60.256;18.694;2023-05-07T04:05:21;3.00;99.90
16158;DHT22;8184;60.256;18.694;2023-05-07T04:07:49;3.20;99.90
16158;DHT22;8184;60.256;18.694;2023-05-07T04:10:18;3.30;99.90
16158;DHT22;8184;60.256;18.694;2023-05-07T04:12:46;3.30;99.90
16158;DHT22;8184;60.256;18.694;2023-05-07T04:15:14;3.10;99.90
16158;DHT22;8184;60.256;18.694;2023-05-07T04:17:44;3.10;99.90
16158;DHT22;8184;60.256;18.694;2023-05-07T04:20:13;3.00;99.90
16158;DHT22;8184;60.256;18.694;2023-05-07T04:22:44;3.10;99.90
16158;DHT22;8184;60.256;18.694;2023-05-07T04:25:12;3.20;99.90
16158;DHT22;8184;60.256;18.694;2023-05-07T04:27:40;3.30;99.90
16158;DHT22;8184;60.256;18.694;2023-05-07T04:30:09;3.40;99.90
16158;DHT22;8184;60.256;18.694;2023-05-07T04:32:38;3.60;99.90
16158;DHT22;8184;60.256;18.694;2023-05-07T04:35:09;4.20;99.90
16158;DHT22;8184;60.256;18.694;2023-05-07T04:37:37;4.70;99.90
16158;DHT22;8184;60.256;18.694;2023-05-07T04:40:06;4.80;99.90
16158;DHT22;8184;60.256;18.694;2023-05-07T04:42:35;5.00;99.90
16158;DHT22;8184;60.256;18.694;2023-05-07T04:45:03;4.90;99.90
16158;DHT22;8184;60.256;18.694;2023-05-07T04:47:32;4.80;99.90
16158;DHT22;8184;60.256;18.694;2023-05-07T04:50:01;5.40;99.90
16158;DHT22;8184;60.256;18.694;2023-05-07T04:52:30;5.50;99.90
16158;DHT22;8184;60.256;18.694;2023-05-07T04:54:59;5.60;99.90
16158;DHT22;8184;60.256;18.694;2023-05-07T04:57:27;5.60;99.90
16158;DHT22;8184;60.256;18.694;2023-05-07T04:59:55;5.60;99.90
16158;DHT22;8184;60.256;18.694;2023-05-07T05:02:23;6.00;99.90
16158;DHT22;8184;60.256;18.694;2023-05-07T05:04:51;6.40;99.90
16158;DHT22;8184;60.256;18.694;2023-05-07T05:07:24;6.40;99.90
16158;DHT22;8184;60.256;18.694;2023-05-07T05:09:54;6.70;99.90
16158;DHT22;8184;60.256;18.694;2023-05-07T05:12:24;6.60;99.90
16158;DHT22;8184;60.256;18.694;2023-05-07T05:14:52;6.30;99.90
16158;DHT22;8184;60.256;18.694;2023-05-07T05:17:20;6.10;99.90
16158;DHT22;8184;60.256;18.694;2023-05-07T05:19:49;6.20;99.90
16158;DHT22;8184;60.256;18.694;2023-05-07T05:22:17;6.40;99.90
16158;DHT22;8184;60.256;18.694;2023-05-07T05:24:47;6.30;99.90
16158;DHT22;8184;60.256;18.694;2023-05-07T05:27:17;6.50;99.90
16158;DHT22;8184;60.256;18.694;2023-05-07T05:29:45;6.30;99.90
16158;DHT22;8184;60.256;18.694;2023-05-07T05:32:13;6.60;99.90
16158;DHT22;8184;60.256;18.694;2023-05-07T05:34:42;6.80;99.90
16158;DHT22;8184;60.256;18.694;2023-05-07T05:37:10;6.90;99.90
16158;DHT22;8184;60.256;18.694;2023-05-07T05:39:38;6.70;99.90
16158;DHT22;8184;60.256;18.694;2023-05-07T05:42:07;7.00;99.90
16158;DHT22;8184;60.256;18.694;2023-05-07T05:44:36;7.00;99.90
16158;DHT22;8184;60.256;18.694;2023-05-07T05:47:04;7.20;99.90
16158;DHT22;8184;60.256;18.694;2023-05-07T05:49:32;6.90;99.90
16158;DHT22;8184;60.256;18.694;2023-05-07T05:52:01;7.00;99.90
16158;DHT22;8184;60.256;18.694;2023-05-07T05:54:29;7.20;99.90
16158;DHT22;8184;60.256;18.694;2023-05-07T05:56:58;7.20;99.90
16158;DHT22;8184;60.256;18.694;2023-05-07T05:59:26;7.40;99.90
16158;DHT22;8184;60.256;18.694;2023-05-07T06:01:58;7.60;99.90
16158;DHT22;8184;60.256;18.694;2023-05-07T06:04:27;7.70;99.90
16158;DHT22;8184;60.256;18.694;2023-05-07T06:06:55;7.70;99.90
16158;DHT22;8184;60.256;18.694;2023-05-07T06:09:23;7.80;99.90
16158;DHT22;8184;60.256;18.694;2023-05-07T06:11:51;8.10;99.90
16158;DHT22;8184;60.256;18.694;2023-05-07T06:14:19;8.20;99.90
16158;DHT22;8184;60.256;18.694;2023-05-07T06:16:47;8.00;99.90
16158;DHT22;8184;60.256;18.694;2023-05-07T06:19:17;8.10;99.90
16158;DHT22;8184;60.256;18.694;2023-05-07T06:21:50;8.10;99.90
16158;DHT22;8184;60.256;18.694;2023-05-07T06:24:18;8.40;99.90
16158;DHT22;8184;60.256;18.694;2023-05-07T06:26:46;8.40;99.90
16158;DHT22;8184;60.256;18.694;2023-05-07T06:29:14;8.50;99.90
16158;DHT22;8184;60.256;18.694;2023-05-07T06:31:42;8.70;99.90
16158;DHT22;8184;60.256;18.694;2023-05-07T06:34:11;8.60;99.90
16158;DHT22;8184;60.256;18.694;2023-05-07T06:36:42;8.50;99.90
16158;DHT22;8184;60.256;18.694;2023-05-07T06:39:10;8.50;99.90
16158;DHT22;8184;60.256;18.694;2023-05-07T06:41:38;8.70;99.90
16158;DHT22;8184;60.256;18.694;2023-05-07T06:44:07;8.80;99.90
16158;DHT22;8184;60.256;18.694;2023-05-07T06:46:35;8.80;99.90
16158;DHT22;8184;60.256;18.694;2023-05-07T06:49:03;8.90;99.90
16158;DHT22;8184;60.256;18.694;2023-05-07T06:51:32;8.80;99.90
16158;DHT22;8184;60.256;18.694;2023-05-07T06:54:01;8.90;99.90
16158;DHT22;8184;60.256;18.694;2023-05-07T06:56:32;8.80;99.90
16158;DHT22;8184;60.256;18.694;2023-05-07T06:59:01;8.80;99.90
16158;DHT22;8184;60.256;18.694;2023-05-07T07:01:29;9.10;99.90
16158;DHT22;8184;60.256;18.694;2023-05-07T07:03:58;9.20;99.90
16158;DHT22;8184;60.256;18.694;2023-05-07T07:06:28;9.00;99.90
16158;DHT22;8184;60.256;18.694;2023-05-07T07:08:58;9.00;99.90
16158;DHT22;8184;60.256;18.694;2023-05-07T07:11:28;9.30;99.90
16158;DHT22;8184;60.256;18.694;2023-05-07T07:13:56;9.50;99.90
16158;DHT22;8184;60.256;18.694;2023-05-07T07:16:25;9.20;99.90
16158;DHT22;8184;60.256;18.694;2023-05-07T07:18:54;9.30;99.90
16158;DHT22;8184;60.256;18.694;2023-05-07T07:21:22;9.50;99.90
16158;DHT22;8184;60.256;18.694;2023-05-07T07:23:50;9.10;99.90
16158;DHT22;8184;60.256;18.694;2023-05-07T07:26:18;9.20;99.90
16158;DHT22;8184;60.256;18.694;2023-05-07T07:28:49;9.50;99.90
16158;DHT22;8184;60.256;18.694;2023-05-07T07:31:17;9.60;99.90
16158;DHT22;8184;60.256;18.694;2023-05-07T07:33:48;9.50;99.90
16158;DHT22;8184;60.256;18.694;2023-05-07T07:36:18;9.40;99.90
16158;DHT22;8184;60.256;18.694;2023-05-07T07:38:49;9.40;99.90
16158;DHT22;8184;60.256;18.694;2023-05-07T07:41:17;9.50;99.90
16158;DHT22;8184;60.256;18.694;2023-05-07T07:43:45;9.70;99.90
16158;DHT22;8184;60.256;18.694;2023-05-07T07:46:19;9.80;99.90
16158;DHT22;8184;60.256;18.694;2023-05-07T07:48:47;9.80;99.90
16158;DHT22;8184;60.256;18.694;2023-05-07T07:51:16;9.70;99.90
16158;DHT22;8184;60.256;18.694;2023-05-07T07:53:44;9.50;99.90
16158;DHT22;8184;60.256;18.694;2023-05-07T07:56:12;9.60;99.90
16158;DHT22;8184;60.256;18.694;2023-05-07T07:58:44;9.90;99.90
16158;DHT22;8184;60.256;18.694;2023-05-07T08:01:12;9.90;99.90
16158;DHT22;8184;60.256;18.694;2023-05-07T08:03:42;9.80;99.90
16158;DHT22;8184;60.256;18.694;2023-05-07T08:06:13;10.00;99.90
16158;DHT22;8184;60.256;18.694;2023-05-07T08:08:41;10.10;99.90
16158;DHT22;8184;60.256;18.694;2023-05-07T08:11:09;10.00;99.90
16158;DHT22;8184;60.256;18.694;2023-05-07T08:13:37;9.80;99.90
16158;DHT22;8184;60.256;18.694;2023-05-07T08:16:06;10.10;99.90
16158;DHT22;8184;60.256;18.694;2023-05-07T08:18:34;10.40;99.90
16158;DHT22;8184;60.256;18.694;2023-05-07T08:21:04;10.10;99.90
16158;DHT22;8184;60.256;18.694;2023-05-07T08:23:32;10.20;99.90
16158;DHT22;8184;60.256;18.694;2023-05-07T08:26:01;10.40;99.90
16158;DHT22;8184;60.256;18.694;2023-05-07T08:28:29;10.40;99.90
16158;DHT22;8184;60.256;18.694;2023-05-07T08:30:57;10.20;99.90
16158;DHT22;8184;60.256;18.694;2023-05-07T08:33:27;10.30;99.90
16158;DHT22;8184;60.256;18.694;2023-05-07T08:35:55;10.40;99.90
16158;DHT22;8184;60.256;18.694;2023-05-07T08:38:25;10.50;99.90
16158;DHT22;8184;60.256;18.694;2023-05-07T08:40:53;10.80;99.90
16158;DHT22;8184;60.256;18.694;2023-05-07T08:43:22;10.40;99.90
16158;DHT22;8184;60.256;18.694;2023-05-07T08:45:51;10.50;99.90
16158;DHT22;8184;60.256;18.694;2023-05-07T08:48:21;10.40;99.90
16158;DHT22;8184;60.256;18.694;2023-05-07T08:50:51;10.60;99.90
16158;DHT22;8184;60.256;18.694;2023-05-07T08:53:19;10.60;99.90
16158;DHT22;8184;60.256;18.694;2023-05-07T08:55:52;10.50;99.90
16158;DHT22;8184;60.256;18.694;2023-05-07T08:58:20;10.60;99.90
16158;DHT22;8184;60.256;18.694;2023-05-07T09:00:48;11.20;99.90
16158;DHT22;8184;60.256;18.694;2023-05-07T09:03:18;11.00;99.90
16158;DHT22;8184;60.256;18.694;2023-05-07T09:05:46;11.10;99.90
16158;DHT22;8184;60.256;18.694;2023-05-07T09:08:15;11.10;99.90
16158;DHT22;8184;60.256;18.694;2023-05-07T09:10:44;11.30;99.90
16158;DHT22;8184;60.256;18.694;2023-05-07T09:13:13;11.50;99.90
16158;DHT22;8184;60.256;18.694;2023-05-07T09:15:42;11.70;99.90
16158;DHT22;8184;60.256;18.694;2023-05-07T09:18:10;11.40;99.90
16158;DHT22;8184;60.256;18.694;2023-05-07T09:20:42;11.50;99.90
16158;DHT22;8184;60.256;18.694;2023-05-07T09:23:10;11.40;99.90
16158;DHT22;8184;60.256;18.694;2023-05-07T09:25:39;11.30;99.90
16158;DHT22;8184;60.256;18.694;2023-05-07T09:28:07;11.30;99.90
16158;DHT22;8184;60.256;18.694;2023-05-07T09:30:39;11.30;99.90
16158;DHT22;8184;60.256;18.694;2023-05-07T09:33:07;11.50;99.90
16158;DHT22;8184;60.256;18.694;2023-05-07T09:35:37;11.70;99.90
16158;DHT22;8184;60.256;18.694;2023-05-07T09:38:05;11.80;99.90
16158;DHT22;8184;60.256;18.694;2023-05-07T09:40:34;11.80;99.90
16158;DHT22;8184;60.256;18.694;2023-05-07T09:43:08;11.90;99.90
16158;DHT22;8184;60.256;18.694;2023-05-07T09:45:38;12.10;99.90
16158;DHT22;8184;60.256;18.694;2023-05-07T09:48:09;12.20;99.90
16158;DHT22;8184;60.256;18.694;2023-05-07T09:50:40;11.40;99.90
16158;DHT22;8184;60.256;18.694;2023-05-07T09:53:12;10.60;99.90
16158;DHT22;8184;60.256;18.694;2023-05-07T09:55:41;10.40;99.90
16158;DHT22;8184;60.256;18.694;2023-05-07T09:58:11;9.80;99.90
16158;DHT22;8184;60.256;18.694;2023-05-07T10:00:41;10.20;99.90
16158;DHT22;8184;60.256;18.694;2023-05-07T10:03:10;9.80;99.90
16158;DHT22;8184;60.256;18.694;2023-05-07T10:05:39;9.70;99.90
16158;DHT22;8184;60.256;18.694;2023-05-07T10:08:08;9.30;99.90
16158;DHT22;8184;60.256;18.694;2023-05-07T10:10:36;9.50;99.90
16158;DHT22;8184;60.256;18.694;2023-05-07T10:13:05;10.00;99.90
16158;DHT22;8184;60.256;18.694;2023-05-07T10:15:37;10.50;99.90
16158;DHT22;8184;60.256;18.694;2023-05-07T10:18:07;10.10;99.90
16158;DHT22;8184;60.256;18.694;2023-05-07T10:20:36;9.90;99.90
16158;DHT22;8184;60.256;18.694;2023-05-07T10:23:04;9.80;99.90
16158;DHT22;8184;60.256;18.694;2023-05-07T10:25:33;9.30;99.90
16158;DHT22;8184;60.256;18.694;2023-05-07T10:28:03;9.40;99.90
16158;DHT22;8184;60.256;18.694;2023-05-07T10:30:38;9.40;99.90
16158;DHT22;8184;60.256;18.694;2023-05-07T10:33:10;9.30;99.90
16158;DHT22;8184;60.256;18.694;2023-05-07T10:35:43;9.60;99.90
16158;DHT22;8184;60.256;18.694;2023-05-07T10:38:12;9.10;99.90
16158;DHT22;8184;60.256;18.694;2023-05-07T10:40:40;9.40;99.90
16158;DHT22;8184;60.256;18.694;2023-05-07T10:43:08;9.60;99.90
16158;DHT22;8184;60.256;18.694;2023-05-07T10:45:37;9.70;99.90
16158;DHT22;8184;60.256;18.694;2023-05-07T10:48:05;10.10;99.90
16158;DHT22;8184;60.256;18.694;2023-05-07T10:51:17;9.40;99.90
16158;DHT22;8184;60.256;18.694;2023-05-07T10:53:46;9.70;99.90
16158;DHT22;8184;60.256;18.694;2023-05-07T10:56:24;9.20;99.90
16158;DHT22;8184;60.256;18.694;2023-05-07T10:58:53;9.20;99.90
16158;DHT22;8184;60.256;18.694;2023-05-07T11:04:12;9.70;99.90
16158;DHT22;8184;60.256;18.694;2023-05-07T11:06:44;9.20;99.90
16158;DHT22;8184;60.256;18.694;2023-05-07T11:12:13;9.70;99.90
16158;DHT22;8184;60.256;18.694;2023-05-07T11:14:44;9.50;99.90
16158;DHT22;8184;60.256;18.694;2023-05-07T11:17:13;9.60;99.90
16158;DHT22;8184;60.256;18.694;2023-05-07T11:19:47;9.40;99.90
16158;DHT22;8184;60.256;18.694;2023-05-07T11:22:37;9.70;99.90
16158;DHT22;8184;60.256;18.694;2023-05-07T11:25:07;9.50;99.90
16158;DHT22;8184;60.256;18.694;2023-05-07T11:27:36;9.20;99.90
16158;DHT22;8184;60.256;18.694;2023-05-07T11:30:05;9.20;99.90
16158;DHT22;8184;60.256;18.694;2023-05-07T11:32:33;9.30;99.90
16158;DHT22;8184;60.256;18.694;2023-05-07T11:35:01;9.40;99.90
16158;DHT22;8184;60.256;18.694;2023-05-07T11:37:29;9.70;99.90
16158;DHT22;8184;60.256;18.694;2023-05-07T11:40:06;9.70;99.90
16158;DHT22;8184;60.256;18.694;2023-05-07T11:42:35;9.70;99.90
16158;DHT22;8184;60.256;18.694;2023-05-07T11:45:04;9.60;99.90
16158;DHT22;8184;60.256;18.694;2023-05-07T11:47:36;9.50;99.90
16158;DHT22;8184;60.256;18.694;2023-05-07T11:50:06;9.50;99.90
16158;DHT22;8184;60.256;18.694;2023-05-07T11:52:34;9.60;99.90
16158;DHT22;8184;60.256;18.694;2023-05-07T11:55:04;9.50;99.90
16158;DHT22;8184;60.256;18.694;2023-05-07T11:57:33;9.50;99.90
16158;DHT22;8184;60.256;18.694;2023-05-07T12:00:01;9.60;99.90
16158;DHT22;8184;60.256;18.694;2023-05-07T12:02:31;9.50;99.90
16158;DHT22;8184;60.256;18.694;2023-05-07T12:05:01;9.70;99.90
16158;DHT22;8184;60.256;18.694;2023-05-07T12:07:30;9.80;99.90
16158;DHT22;8184;60.256;18.694;2023-05-07T12:09:58;9.60;99.90
16158;DHT22;8184;60.256;18.694;2023-05-07T12:12:28;9.50;99.90
16158;DHT22;8184;60.256;18.694;2023-05-07T12:14:56;9.60;99.90
16158;DHT22;8184;60.256;18.694;2023-05-07T12:17:24;9.40;99.90
16158;DHT22;8184;60.256;18.694;2023-05-07T12:19:52;9.40;99.90
16158;DHT22;8184;60.256;18.694;2023-05-07T12:22:21;9.40;99.90
16158;DHT22;8184;60.256;18.694;2023-05-07T12:24:56;9.60;99.90
16158;DHT22;8184;60.256;18.694;2023-05-07T12:27:25;9.60;99.90
16158;DHT22;8184;60.256;18.694;2023-05-07T12:29:56;9.60;99.90
16158;DHT22;8184;60.256;18.694;2023-05-07T12:32:25;9.60;99.90
16158;DHT22;8184;60.256;18.694;2023-05-07T12:34:53;9.80;99.90
16158;DHT22;8184;60.256;18.694;2023-05-07T12:37:22;9.60;99.90
16158;DHT22;8184;60.256;18.694;2023-05-07T12:40:03;9.60;99.90
16158;DHT22;8184;60.256;18.694;2023-05-07T12:42:33;9.70;99.90
16158;DHT22;8184;60.256;18.694;2023-05-07T12:45:15;9.80;99.90
16158;DHT22;8184;60.256;18.694;2023-05-07T12:47:44;9.60;99.90
16158;DHT22;8184;60.256;18.694;2023-05-07T12:50:13;9.50;99.90
16158;DHT22;8184;60.256;18.694;2023-05-07T12:52:42;9.60;99.90
16158;DHT22;8184;60.256;18.694;2023-05-07T12:55:12;9.70;99.90
16158;DHT22;8184;60.256;18.694;2023-05-07T12:57:43;9.60;99.90
16158;DHT22;8184;60.256;18.694;2023-05-07T13:00:11;9.50;99.90
16158;DHT22;8184;60.256;18.694;2023-05-07T13:02:42;9.40;99.90
16158;DHT22;8184;60.256;18.694;2023-05-07T13:05:11;9.60;99.90
16158;DHT22;8184;60.256;18.694;2023-05-07T13:07:40;9.60;99.90
16158;DHT22;8184;60.256;18.694;2023-05-07T13:10:09;9.40;99.90
16158;DHT22;8184;60.256;18.694;2023-05-07T13:12:37;9.50;99.90
16158;DHT22;8184;60.256;18.694;2023-05-07T13:15:06;9.60;99.90
16158;DHT22;8184;60.256;18.694;2023-05-07T13:17:35;9.60;99.90
16158;DHT22;8184;60.256;18.694;2023-05-07T13:20:05;9.80;99.90
16158;DHT22;8184;60.256;18.694;2023-05-07T13:22:34;9.70;99.90
16158;DHT22;8184;60.256;18.694;2023-05-07T13:25:03;9.60;99.90
16158;DHT22;8184;60.256;18.694;2023-05-07T13:27:31;9.80;99.90
16158;DHT22;8184;60.256;18.694;2023-05-07T13:30:03;9.80;99.90
16158;DHT22;8184;60.256;18.694;2023-05-07T13:32:31;9.70;99.90
16158;DHT22;8184;60.256;18.694;2023-05-07T13:34:59;9.90;99.90
16158;DHT22;8184;60.256;18.694;2023-05-07T13:37:29;10.10;99.90
16158;DHT22;8184;60.256;18.694;2023-05-07T13:39:58;10.20;99.90
16158;DHT22;8184;60.256;18.694;2023-05-07T13:42:27;10.00;99.90
16158;DHT22;8184;60.256;18.694;2023-05-07T13:44:55;9.90;99.90
16158;DHT22;8184;60.256;18.694;2023-05-07T13:47:25;10.10;99.90
16158;DHT22;8184;60.256;18.694;2023-05-07T13:49:53;9.80;99.90
16158;DHT22;8184;60.256;18.694;2023-05-07T13:52:22;9.70;99.90
16158;DHT22;8184;60.256;18.694;2023-05-07T13:54:51;10.00;99.90
16158;DHT22;8184;60.256;18.694;2023-05-07T13:57:21;10.20;99.90
16158;DHT22;8184;60.256;18.694;2023-05-07T13:59:50;10.40;99.90
16158;DHT22;8184;60.256;18.694;2023-05-07T14:02:18;10.50;99.90
16158;DHT22;8184;60.256;18.694;2023-05-07T14:04:46;10.10;99.90
16158;DHT22;8184;60.256;18.694;2023-05-07T14:07:15;10.10;99.90
16158;DHT22;8184;60.256;18.694;2023-05-07T14:09:44;9.90;99.90
16158;DHT22;8184;60.256;18.694;2023-05-07T14:12:13;10.10;99.90
16158;DHT22;8184;60.256;18.694;2023-05-07T14:14:42;10.10;99.90
16158;DHT22;8184;60.256;18.694;2023-05-07T14:17:10;10.40;99.90
16158;DHT22;8184;60.256;18.694;2023-05-07T14:19:38;10.30;99.90
16158;DHT22;8184;60.256;18.694;2023-05-07T14:22:10;10.30;99.90
16158;DHT22;8184;60.256;18.694;2023-05-07T14:24:38;10.30;99.90
16158;DHT22;8184;60.256;18.694;2023-05-07T14:27:06;9.90;99.90
16158;DHT22;8184;60.256;18.694;2023-05-07T14:29:36;10.40;99.90
16158;DHT22;8184;60.256;18.694;2023-05-07T14:32:04;10.50;99.90
16158;DHT22;8184;60.256;18.694;2023-05-07T14:34:33;10.60;99.90
16158;DHT22;8184;60.256;18.694;2023-05-07T14:37:04;10.70;99.90
16158;DHT22;8184;60.256;18.694;2023-05-07T14:39:32;10.60;99.90
16158;DHT22;8184;60.256;18.694;2023-05-07T14:42:00;10.50;99.90
16158;DHT22;8184;60.256;18.694;2023-05-07T14:44:29;10.30;99.90
16158;DHT22;8184;60.256;18.694;2023-05-07T14:46:59;10.20;99.90
16158;DHT22;8184;60.256;18.694;2023-05-07T14:49:28;10.20;99.90
16158;DHT22;8184;60.256;18.694;2023-05-07T14:51:57;10.30;99.90
16158;DHT22;8184;60.256;18.694;2023-05-07T14:54:25;10.60;99.90
16158;DHT22;8184;60.256;18.694;2023-05-07T14:56:53;10.70;99.90
16158;DHT22;8184;60.256;18.694;2023-05-07T14:59:22;10.80;99.90
16158;DHT22;8184;60.256;18.694;2023-05-07T15:01:52;10.80;99.90
16158;DHT22;8184;60.256;18.694;2023-05-07T15:04:21;11.10;99.90
16158;DHT22;8184;60.256;18.694;2023-05-07T15:06:50;11.10;99.90
16158;DHT22;8184;60.256;18.694;2023-05-07T15:09:19;10.90;99.90
16158;DHT22;8184;60.256;18.694;2023-05-07T15:11:50;10.90;99.90
16158;DHT22;8184;60.256;18.694;2023-05-07T15:14:18;10.40;99.90
16158;DHT22;8184;60.256;18.694;2023-05-07T15:16:48;10.30;99.90
16158;DHT22;8184;60.256;18.694;2023-05-07T15:19:16;10.40;99.90
16158;DHT22;8184;60.256;18.694;2023-05-07T15:21:46;10.20;99.90
16158;DHT22;8184;60.256;18.694;2023-05-07T15:24:14;10.30;99.90
16158;DHT22;8184;60.256;18.694;2023-05-07T15:26:43;10.60;99.90
16158;DHT22;8184;60.256;18.694;2023-05-07T15:29:11;10.80;99.90
16158;DHT22;8184;60.256;18.694;2023-05-07T15:31:39;11.10;99.90
16158;DHT22;8184;60.256;18.694;2023-05-07T15:34:07;11.10;99.90
16158;DHT22;8184;60.256;18.694;2023-05-07T15:36:36;11.10;99.90
16158;DHT22;8184;60.256;18.694;2023-05-07T15:39:05;11.00;99.90
16158;DHT22;8184;60.256;18.694;2023-05-07T15:41:33;11.00;99.90
16158;DHT22;8184;60.256;18.694;2023-05-07T15:44:03;11.20;99.90
16158;DHT22;8184;60.256;18.694;2023-05-07T15:46:32;11.10;99.90
16158;DHT22;8184;60.256;18.694;2023-05-07T15:49:01;10.90;99.90
16158;DHT22;8184;60.256;18.694;2023-05-07T15:51:30;11.20;99.90
16158;DHT22;8184;60.256;18.694;2023-05-07T15:53:59;11.40;99.90
16158;DHT22;8184;60.256;18.694;2023-05-07T15:56:31;11.40;99.90
16158;DHT22;8184;60.256;18.694;2023-05-07T15:58:59;11.00;99.90
16158;DHT22;8184;60.256;18.694;2023-05-07T16:01:28;11.20;99.90